Lady Jeanete — HKAH9 — position and weather

sailwx.info

Track history (hours):
 
Tides and Currents Weather Stations Pressure Air Temp Water Temp Dewpoint Dewpoint Depression Visibility Wind Speed Wind Dir Waves Ship Positions

Lady Jeanete

Last reported at 2017-Dec-11 17:00 UTC. Time now 2017-Dec-14 04:07 UTC.
Position N 10°58' W 074°46'.

MMSI: 730005000.

Date/timePositionNaut miles runAvg speedWind from/ knotsBaromVisibWave heightAir tempDewpointWater temp
2017-Dec-11 17:00N 10°58' W 074°46'0 0.0
2017-Dec-11 16:30N 10°58' W 074°46'1 2.3
2017-Dec-11 16:01N 10°59' W 074°46'2 4.0
2017-Dec-11 15:30N 11°01' W 074°47'2 3.5
2017-Dec-11 15:00N 11°02' W 074°48'2 3.6
2017-Dec-11 14:30N 11°03' W 074°50'1 1.7
2017-Dec-11 14:00N 11°04' W 074°50'2 3.8
2017-Dec-11 13:30N 11°06' W 074°51'1 2.7
2017-Dec-11 13:00N 11°07' W 074°52'0 0.6
2017-Dec-11 12:30N 11°07' W 074°52'4 7.1
2017-Dec-11 12:00N 11°04' W 074°50'0 0.5
2017-Dec-11 11:30N 11°03' W 074°50'0 0.0
2017-Dec-11 05:41N 11°03' W 074°50'0 0.0
2017-Dec-11 05:30N 11°03' W 074°50'0 0.0
2017-Dec-11 05:00N 11°03' W 074°50'0 0.0
2017-Dec-11 04:30N 11°03' W 074°50'0 0.0
2017-Dec-11 04:00N 11°03' W 074°50'0 0.0
2017-Dec-11 03:30N 11°03' W 074°50'0 0.0
2017-Dec-11 03:00N 11°03' W 074°50'0 0.6
2017-Dec-11 02:30N 11°03' W 074°50'612.5
2017-Dec-11 02:00N 10°59' W 074°46'0 0.7
2017-Dec-11 01:30N 10°59' W 074°46'1 2.1
2017-Dec-11 01:00N 11°00' W 074°46'1 2.8
2017-Dec-11 00:30N 11°01' W 074°47'1 2.7
2017-Dec-11 00:00N 11°02' W 074°48'1 1.8
2017-Dec-10 23:30N 11°02' W 074°49'2 3.1
2017-Dec-10 23:00N 11°03' W 074°50'1 2.8
2017-Dec-10 22:30N 11°02' W 074°49'0 0.0
2017-Dec-10 22:00N 11°02' W 074°49'0 0.0
2017-Dec-10 21:31N 11°02' W 074°49'0 0.0
2017-Dec-10 21:00N 11°02' W 074°49'0 0.0
2017-Dec-10 20:28N 11°02' W 074°49'0 0.0
2017-Dec-10 20:00N 11°02' W 074°49'0 0.0
2017-Dec-10 19:30N 11°02' W 074°49'0 0.0
2017-Dec-10 19:00N 11°02' W 074°49'0 0.0
2017-Dec-10 18:30N 11°02' W 074°49'0 0.0
2017-Dec-10 18:00N 11°02' W 074°49'0 0.0
2017-Dec-10 17:30N 11°02' W 074°49'0 0.0
2017-Dec-10 17:00N 11°02' W 074°49'0 0.0
2017-Dec-10 16:30N 11°02' W 074°49'0 0.2
2017-Dec-10 16:00N 11°02' W 074°49'0 0.0
2017-Dec-10 15:30N 11°02' W 074°49'0 0.0
2017-Dec-10 15:00N 11°02' W 074°49'0 0.0
2017-Dec-10 14:30N 11°02' W 074°49'1 2.6
2017-Dec-10 14:00N 11°03' W 074°50'0 1.0
2017-Dec-10 13:30N 11°03' W 074°50'2 3.1
2017-Dec-10 13:00N 11°04' W 074°51'2 3.5
2017-Dec-10 12:30N 11°06' W 074°51'2 3.2
2017-Dec-10 11:59N 11°07' W 074°53'2 4.1
2017-Dec-10 11:30N 11°06' W 074°51'2 4.7
2017-Dec-10 11:00N 11°03' W 074°50'1 2.9
2017-Dec-10 10:30N 11°02' W 074°49'0 0.0
2017-Dec-10 10:00N 11°02' W 074°49'0 0.0
2017-Dec-10 09:30N 11°02' W 074°49'0 0.0
2017-Dec-10 09:00N 11°02' W 074°49'0 0.0
2017-Dec-10 08:30N 11°02' W 074°49'0 0.0
2017-Dec-10 08:00N 11°02' W 074°49'0 0.0
2017-Dec-10 07:30N 11°02' W 074°49'0 0.0
2017-Dec-10 07:00N 11°02' W 074°49'0 0.0
2017-Dec-10 06:30N 11°02' W 074°49'0 0.0
2017-Dec-10 06:00N 11°02' W 074°49'0 0.0
2017-Dec-10 05:30N 11°02' W 074°49'0 0.0
2017-Dec-10 05:00N 11°02' W 074°49'0 0.0
2017-Dec-10 04:30N 11°02' W 074°49'0 0.0
2017-Dec-10 04:00N 11°02' W 074°49'0 0.0
2017-Dec-10 03:30N 11°02' W 074°49'0 0.0
2017-Dec-10 03:00N 11°02' W 074°49'0 0.0
2017-Dec-10 02:30N 11°02' W 074°49'0 0.0
2017-Dec-10 02:00N 11°02' W 074°49'0 0.0
2017-Dec-10 01:30N 11°02' W 074°49'0 0.0
2017-Dec-10 01:00N 11°02' W 074°49'0 0.0
2017-Dec-10 00:30N 11°02' W 074°49'0 0.1
2017-Dec-10 00:00N 11°02' W 074°49'1 1.9
2017-Dec-09 23:30N 11°03' W 074°50'2 4.0
2017-Dec-09 23:00N 11°05' W 074°51'2 3.4
2017-Dec-09 22:30N 11°06' W 074°51'1 2.3
2017-Dec-09 22:00N 11°07' W 074°52'3 6.2
2017-Dec-09 21:30N 11°04' W 074°51'2 4.4
2017-Dec-09 21:00N 11°02' W 074°49'0 0.0
2017-Dec-09 20:30N 11°02' W 074°49'0 0.0
2017-Dec-09 20:00N 11°02' W 074°49'0 0.0
2017-Dec-09 19:31N 11°02' W 074°49'0 0.0
2017-Dec-09 19:00N 11°02' W 074°49'0 0.0
2017-Dec-09 18:30N 11°02' W 074°49'0 0.0
2017-Dec-09 18:00N 11°02' W 074°49'0 0.0
2017-Dec-09 17:30N 11°02' W 074°49'0 0.0
2017-Dec-09 17:00N 11°02' W 074°49'0 0.0
2017-Dec-09 16:30N 11°02' W 074°49'0 0.0
2017-Dec-09 16:00N 11°02' W 074°49'0 0.0
2017-Dec-09 15:30N 11°02' W 074°49'0 0.0
2017-Dec-09 15:00N 11°02' W 074°49'0 0.0
2017-Dec-09 14:30N 11°02' W 074°49'0 0.9
2017-Dec-09 14:00N 11°03' W 074°49'1 2.7
2017-Dec-09 13:31N 11°04' W 074°50'2 3.9
2017-Dec-09 12:59N 11°06' W 074°51'1 2.9
2017-Dec-09 12:30N 11°07' W 074°52'0 0.9
2017-Dec-09 12:00N 11°07' W 074°52'3 6.3
2017-Dec-09 11:30N 11°04' W 074°51'1 1.6
2017-Dec-09 11:00N 11°03' W 074°50'0 0.0
2017-Dec-09 10:30N 11°03' W 074°50'0 0.0
2017-Dec-09 10:00N 11°03' W 074°50'0 0.0
2017-Dec-09 09:30N 11°03' W 074°50'0 0.0
2017-Dec-09 09:00N 11°03' W 074°50'0 0.0
2017-Dec-09 08:30N 11°03' W 074°50'0 0.0
2017-Dec-09 08:00N 11°03' W 074°50'0 0.0
2017-Dec-09 07:30N 11°03' W 074°50'0 0.0
2017-Dec-09 07:00N 11°03' W 074°50'0 0.0
2017-Dec-09 06:30N 11°03' W 074°50'0 0.0
2017-Dec-09 06:00N 11°03' W 074°50'0 0.0
2017-Dec-09 05:30N 11°03' W 074°50'0 0.0
2017-Dec-09 05:00N 11°03' W 074°50'0 0.0
2017-Dec-09 04:30N 11°03' W 074°50'0 0.0
2017-Dec-09 04:00N 11°03' W 074°50'0 0.0
2017-Dec-09 03:30N 11°03' W 074°50'0 0.0
2017-Dec-09 03:00N 11°03' W 074°50'0 0.0
2017-Dec-09 02:30N 11°03' W 074°50'0 0.0
2017-Dec-09 02:00N 11°03' W 074°50'0 0.0
2017-Dec-09 01:30N 11°03' W 074°50'0 0.0
2017-Dec-09 01:00N 11°03' W 074°50'0 0.0
2017-Dec-09 00:30N 11°03' W 074°50'0 0.0
2017-Dec-09 00:00N 11°03' W 074°50'0 0.0
2017-Dec-08 23:30N 11°03' W 074°50'1 2.7
2017-Dec-08 23:00N 11°02' W 074°49'0 0.2
2017-Dec-08 22:30N 11°02' W 074°49'0 0.0
2017-Dec-08 22:00N 11°02' W 074°49'0 0.0
2017-Dec-08 21:30N 11°02' W 074°49'0 0.0
2017-Dec-08 21:00N 11°02' W 074°49'0 0.1
2017-Dec-08 20:30N 11°02' W 074°49'0 0.0
2017-Dec-08 20:00N 11°02' W 074°49'0 0.0
2017-Dec-08 19:30N 11°02' W 074°49'0 0.0
2017-Dec-08 19:00N 11°02' W 074°49'0 0.0
2017-Dec-08 18:30N 11°02' W 074°49'0 0.0
2017-Dec-08 18:00N 11°02' W 074°49'0 0.0
2017-Dec-08 17:31N 11°02' W 074°49'0 0.2
2017-Dec-08 17:00N 11°02' W 074°49'0 0.0
2017-Dec-08 16:30N 11°02' W 074°49'0 0.0
2017-Dec-08 16:01N 11°02' W 074°49'0 0.0
2017-Dec-08 15:30N 11°02' W 074°49'0 0.0
2017-Dec-08 15:00N 11°02' W 074°49'0 0.0
2017-Dec-08 14:30N 11°02' W 074°49'1 1.4
2017-Dec-08 14:00N 11°03' W 074°50'2 3.6
2017-Dec-08 13:30N 11°04' W 074°51'2 3.3
2017-Dec-08 13:00N 11°06' W 074°51'1 2.9
2017-Dec-08 12:30N 11°07' W 074°52'1 1.6
2017-Dec-08 12:00N 11°07' W 074°51'4 7.6
2017-Dec-08 11:30N 11°03' W 074°50'0 0.0
2017-Dec-07 23:47N 11°03' W 074°50'0 0.0
2017-Dec-07 23:30N 11°03' W 074°50'0 0.0
2017-Dec-07 23:00N 11°03' W 074°50'1 2.8
2017-Dec-07 22:30N 11°02' W 074°49'0 0.3
2017-Dec-07 22:00N 11°02' W 074°49'1 2.5
2017-Dec-07 21:30N 11°03' W 074°50'0 0.0
2017-Dec-07 21:00N 11°03' W 074°50'0 0.0
2017-Dec-07 20:30N 11°03' W 074°50'0 0.0
2017-Dec-07 20:00N 11°03' W 074°50'0 0.0
2017-Dec-07 19:30N 11°03' W 074°50'0 0.0
2017-Dec-07 18:59N 11°03' W 074°50'0 0.0
2017-Dec-07 18:30N 11°03' W 074°50'0 0.0
2017-Dec-07 18:00N 11°03' W 074°50'0 0.0
2017-Dec-07 17:30N 11°03' W 074°50'0 0.0
2017-Dec-07 17:00N 11°03' W 074°50'0 0.0
2017-Dec-07 16:30N 11°03' W 074°50'0 0.0
2017-Dec-07 16:00N 11°03' W 074°50'0 0.0
2017-Dec-07 15:30N 11°03' W 074°50'0 0.6
2017-Dec-07 15:00N 11°04' W 074°50'2 4.0
2017-Dec-07 14:30N 11°05' W 074°51'1 2.6
2017-Dec-07 14:00N 11°07' W 074°51'2 3.1
2017-Dec-07 13:30N 11°06' W 074°53'2 3.2
2017-Dec-07 13:00N 11°06' W 074°51'3 6.0
2017-Dec-07 12:30N 11°03' W 074°50'1 2.1
2017-Dec-07 12:00N 11°03' W 074°49'1 1.3
2017-Dec-07 11:30N 11°02' W 074°49'0 0.0
2017-Dec-07 11:00N 11°02' W 074°49'1 2.5
2017-Dec-07 10:30N 11°03' W 074°50'1 0.0
2017-Dec-07 00:05N 11°03' W 074°50'0 0.1
2017-Dec-07 00:00N 11°03' W 074°50'0 0.0
2017-Dec-06 23:27N 11°03' W 074°50'0 0.1
2017-Dec-06 23:00N 11°03' W 074°50'2 3.3
2017-Dec-06 22:30N 11°02' W 074°49'0 0.0
2017-Dec-06 22:00N 11°02' W 074°49'0 0.0
2017-Dec-06 21:30N 11°02' W 074°49'0 0.0
2017-Dec-06 21:00N 11°02' W 074°49'  
2017-Dec-03 21:46N 11°03' W 074°50'0 0.0
2017-Dec-03 21:30N 11°03' W 074°50'0 0.0
2017-Dec-03 21:00N 11°03' W 074°50'0 0.0
2017-Dec-03 20:30N 11°03' W 074°50'0 0.0
2017-Dec-03 20:00N 11°03' W 074°50'1 2.8
2017-Dec-03 19:29N 11°02' W 074°49'0 0.0
2017-Dec-03 19:00N 11°02' W 074°49'0 0.0
2017-Dec-03 18:07N 11°02' W 074°49'0 0.0
2017-Dec-03 17:59N 11°02' W 074°49'0 0.0
2017-Dec-03 17:27N 11°02' W 074°49'0 0.0
2017-Dec-03 16:57N 11°02' W 074°49'0 0.0
2017-Dec-03 16:30N 11°02' W 074°49'0 0.0
2017-Dec-03 16:00N 11°02' W 074°49'0 0.0
2017-Dec-03 15:30N 11°02' W 074°49'0 0.0
2017-Dec-03 15:00N 11°02' W 074°49'0 0.0
2017-Dec-03 14:30N 11°02' W 074°49'0 1.0
2017-Dec-03 14:00N 11°03' W 074°49'2 3.0
2017-Dec-03 13:29N 11°04' W 074°50'2 3.9
2017-Dec-03 13:00N 11°06' W 074°51'1 2.7
2017-Dec-03 12:29N 11°07' W 074°52'0 1.0
2017-Dec-03 12:00N 11°07' W 074°52'4 0.3
2017-Dec-02 20:03N 11°03' W 074°50'0 0.0
2017-Dec-02 19:59N 11°03' W 074°50'0 0.0
2017-Dec-02 19:30N 11°03' W 074°50'0 0.0
2017-Dec-02 19:00N 11°03' W 074°50'0 0.0
2017-Dec-02 18:30N 11°03' W 074°50'0 0.0
2017-Dec-02 18:00N 11°03' W 074°50'0 0.0
2017-Dec-02 17:31N 11°03' W 074°50'0 0.0
2017-Dec-02 17:00N 11°03' W 074°50'0 0.0
2017-Dec-02 16:30N 11°03' W 074°50'0 0.0
2017-Dec-02 16:00N 11°03' W 074°50'0 0.0
2017-Dec-02 15:30N 11°03' W 074°50'0 0.0
2017-Dec-02 15:00N 11°03' W 074°50'0 0.0
2017-Dec-02 14:31N 11°03' W 074°50'0 0.0
2017-Dec-01 22:03N 11°03' W 074°50'0 0.0
2017-Dec-01 22:00N 11°03' W 074°50'1 2.9
2017-Dec-01 21:30N 11°02' W 074°49'0 0.0
2017-Dec-01 21:00N 11°02' W 074°49'0 0.0
2017-Dec-01 18:07N 11°02' W 074°49'0 0.0
2017-Dec-01 18:00N 11°02' W 074°49'0 0.0
2017-Dec-01 17:30N 11°02' W 074°49'1 1.7
2017-Dec-01 17:00N 11°03' W 074°50'  
Track history (hours):
 
Tides and Currents Weather Stations Pressure Air Temp Water Temp Dewpoint Dewpoint Depression Visibility Wind Speed Wind Dir Waves Ship Positions

Lady Jeanete

Last reported at 2017-Dec-11 17:00 UTC. Time now 2017-Dec-14 04:07 UTC.
Position N 10°58' W 074°46'.

MMSI: 730005000.

Date/timePositionNaut miles runAvg speedWind from/ knotsBaromVisibWave heightAir tempDewpointWater temp
2017-Dec-11 17:00N 10°58' W 074°46'0 0.0
2017-Dec-11 16:30N 10°58' W 074°46'1 2.3
2017-Dec-11 16:01N 10°59' W 074°46'2 4.0
2017-Dec-11 15:30N 11°01' W 074°47'2 3.5
2017-Dec-11 15:00N 11°02' W 074°48'2 3.6
2017-Dec-11 14:30N 11°03' W 074°50'1 1.7
2017-Dec-11 14:00N 11°04' W 074°50'2 3.8
2017-Dec-11 13:30N 11°06' W 074°51'1 2.7
2017-Dec-11 13:00N 11°07' W 074°52'0 0.6
2017-Dec-11 12:30N 11°07' W 074°52'4 7.1
2017-Dec-11 12:00N 11°04' W 074°50'0 0.5
2017-Dec-11 11:30N 11°03' W 074°50'0 0.0
2017-Dec-11 05:41N 11°03' W 074°50'0 0.0
2017-Dec-11 05:30N 11°03' W 074°50'0 0.0
2017-Dec-11 05:00N 11°03' W 074°50'0 0.0
2017-Dec-11 04:30N 11°03' W 074°50'0 0.0
2017-Dec-11 04:00N 11°03' W 074°50'0 0.0
2017-Dec-11 03:30N 11°03' W 074°50'0 0.0
2017-Dec-11 03:00N 11°03' W 074°50'0 0.6
2017-Dec-11 02:30N 11°03' W 074°50'612.5
2017-Dec-11 02:00N 10°59' W 074°46'0 0.7
2017-Dec-11 01:30N 10°59' W 074°46'1 2.1
2017-Dec-11 01:00N 11°00' W 074°46'1 2.8
2017-Dec-11 00:30N 11°01' W 074°47'1 2.7
2017-Dec-11 00:00N 11°02' W 074°48'1 1.8
2017-Dec-10 23:30N 11°02' W 074°49'2 3.1
2017-Dec-10 23:00N 11°03' W 074°50'1 2.8
2017-Dec-10 22:30N 11°02' W 074°49'0 0.0
2017-Dec-10 22:00N 11°02' W 074°49'0 0.0
2017-Dec-10 21:31N 11°02' W 074°49'0 0.0
2017-Dec-10 21:00N 11°02' W 074°49'0 0.0
2017-Dec-10 20:28N 11°02' W 074°49'0 0.0
2017-Dec-10 20:00N 11°02' W 074°49'0 0.0
2017-Dec-10 19:30N 11°02' W 074°49'0 0.0
2017-Dec-10 19:00N 11°02' W 074°49'0 0.0
2017-Dec-10 18:30N 11°02' W 074°49'0 0.0
2017-Dec-10 18:00N 11°02' W 074°49'0 0.0
2017-Dec-10 17:30N 11°02' W 074°49'0 0.0
2017-Dec-10 17:00N 11°02' W 074°49'0 0.0
2017-Dec-10 16:30N 11°02' W 074°49'0 0.2
2017-Dec-10 16:00N 11°02' W 074°49'0 0.0
2017-Dec-10 15:30N 11°02' W 074°49'0 0.0
2017-Dec-10 15:00N 11°02' W 074°49'0 0.0
2017-Dec-10 14:30N 11°02' W 074°49'1 2.6
2017-Dec-10 14:00N 11°03' W 074°50'0 1.0
2017-Dec-10 13:30N 11°03' W 074°50'2 3.1
2017-Dec-10 13:00N 11°04' W 074°51'2 3.5
2017-Dec-10 12:30N 11°06' W 074°51'2 3.2
2017-Dec-10 11:59N 11°07' W 074°53'2 4.1
2017-Dec-10 11:30N 11°06' W 074°51'2 4.7
2017-Dec-10 11:00N 11°03' W 074°50'1 2.9
2017-Dec-10 10:30N 11°02' W 074°49'0 0.0
2017-Dec-10 10:00N 11°02' W 074°49'0 0.0
2017-Dec-10 09:30N 11°02' W 074°49'0 0.0
2017-Dec-10 09:00N 11°02' W 074°49'0 0.0
2017-Dec-10 08:30N 11°02' W 074°49'0 0.0
2017-Dec-10 08:00N 11°02' W 074°49'0 0.0
2017-Dec-10 07:30N 11°02' W 074°49'0 0.0
2017-Dec-10 07:00N 11°02' W 074°49'0 0.0
2017-Dec-10 06:30N 11°02' W 074°49'0 0.0
2017-Dec-10 06:00N 11°02' W 074°49'0 0.0
2017-Dec-10 05:30N 11°02' W 074°49'0 0.0
2017-Dec-10 05:00N 11°02' W 074°49'0 0.0
2017-Dec-10 04:30N 11°02' W 074°49'0 0.0
2017-Dec-10 04:00N 11°02' W 074°49'0 0.0
2017-Dec-10 03:30N 11°02' W 074°49'0 0.0
2017-Dec-10 03:00N 11°02' W 074°49'0 0.0
2017-Dec-10 02:30N 11°02' W 074°49'0 0.0
2017-Dec-10 02:00N 11°02' W 074°49'0 0.0
2017-Dec-10 01:30N 11°02' W 074°49'0 0.0
2017-Dec-10 01:00N 11°02' W 074°49'0 0.0
2017-Dec-10 00:30N 11°02' W 074°49'0 0.1
2017-Dec-10 00:00N 11°02' W 074°49'1 1.9
2017-Dec-09 23:30N 11°03' W 074°50'2 4.0
2017-Dec-09 23:00N 11°05' W 074°51'2 3.4
2017-Dec-09 22:30N 11°06' W 074°51'1 2.3
2017-Dec-09 22:00N 11°07' W 074°52'3 6.2
2017-Dec-09 21:30N 11°04' W 074°51'2 4.4
2017-Dec-09 21:00N 11°02' W 074°49'0 0.0
2017-Dec-09 20:30N 11°02' W 074°49'0 0.0
2017-Dec-09 20:00N 11°02' W 074°49'0 0.0
2017-Dec-09 19:31N 11°02' W 074°49'0 0.0
2017-Dec-09 19:00N 11°02' W 074°49'0 0.0
2017-Dec-09 18:30N 11°02' W 074°49'0 0.0
2017-Dec-09 18:00N 11°02' W 074°49'0 0.0
2017-Dec-09 17:30N 11°02' W 074°49'0 0.0
2017-Dec-09 17:00N 11°02' W 074°49'0 0.0
2017-Dec-09 16:30N 11°02' W 074°49'0 0.0
2017-Dec-09 16:00N 11°02' W 074°49'0 0.0
2017-Dec-09 15:30N 11°02' W 074°49'0 0.0
2017-Dec-09 15:00N 11°02' W 074°49'0 0.0
2017-Dec-09 14:30N 11°02' W 074°49'0 0.9
2017-Dec-09 14:00N 11°03' W 074°49'1 2.7
2017-Dec-09 13:31N 11°04' W 074°50'2 3.9
2017-Dec-09 12:59N 11°06' W 074°51'1 2.9
2017-Dec-09 12:30N 11°07' W 074°52'0 0.9
2017-Dec-09 12:00N 11°07' W 074°52'3 6.3
2017-Dec-09 11:30N 11°04' W 074°51'1 1.6
2017-Dec-09 11:00N 11°03' W 074°50'0 0.0
2017-Dec-09 10:30N 11°03' W 074°50'0 0.0
2017-Dec-09 10:00N 11°03' W 074°50'0 0.0
2017-Dec-09 09:30N 11°03' W 074°50'0 0.0
2017-Dec-09 09:00N 11°03' W 074°50'0 0.0
2017-Dec-09 08:30N 11°03' W 074°50'0 0.0
2017-Dec-09 08:00N 11°03' W 074°50'0 0.0
2017-Dec-09 07:30N 11°03' W 074°50'0 0.0
2017-Dec-09 07:00N 11°03' W 074°50'0 0.0
2017-Dec-09 06:30N 11°03' W 074°50'0 0.0
2017-Dec-09 06:00N 11°03' W 074°50'0 0.0
2017-Dec-09 05:30N 11°03' W 074°50'0 0.0
2017-Dec-09 05:00N 11°03' W 074°50'0 0.0
2017-Dec-09 04:30N 11°03' W 074°50'0 0.0
2017-Dec-09 04:00N 11°03' W 074°50'0 0.0
2017-Dec-09 03:30N 11°03' W 074°50'0 0.0
2017-Dec-09 03:00N 11°03' W 074°50'0 0.0
2017-Dec-09 02:30N 11°03' W 074°50'0 0.0
2017-Dec-09 02:00N 11°03' W 074°50'0 0.0
2017-Dec-09 01:30N 11°03' W 074°50'0 0.0
2017-Dec-09 01:00N 11°03' W 074°50'0 0.0
2017-Dec-09 00:30N 11°03' W 074°50'0 0.0
2017-Dec-09 00:00N 11°03' W 074°50'0 0.0
2017-Dec-08 23:30N 11°03' W 074°50'1 2.7
2017-Dec-08 23:00N 11°02' W 074°49'0 0.2
2017-Dec-08 22:30N 11°02' W 074°49'0 0.0
2017-Dec-08 22:00N 11°02' W 074°49'0 0.0
2017-Dec-08 21:30N 11°02' W 074°49'0 0.0
2017-Dec-08 21:00N 11°02' W 074°49'0 0.1
2017-Dec-08 20:30N 11°02' W 074°49'0 0.0
2017-Dec-08 20:00N 11°02' W 074°49'0 0.0
2017-Dec-08 19:30N 11°02' W 074°49'0 0.0
2017-Dec-08 19:00N 11°02' W 074°49'0 0.0
2017-Dec-08 18:30N 11°02' W 074°49'0 0.0
2017-Dec-08 18:00N 11°02' W 074°49'0 0.0
2017-Dec-08 17:31N 11°02' W 074°49'0 0.2
2017-Dec-08 17:00N 11°02' W 074°49'0 0.0
2017-Dec-08 16:30N 11°02' W 074°49'0 0.0
2017-Dec-08 16:01N 11°02' W 074°49'0 0.0
2017-Dec-08 15:30N 11°02' W 074°49'0 0.0
2017-Dec-08 15:00N 11°02' W 074°49'0 0.0
2017-Dec-08 14:30N 11°02' W 074°49'1 1.4
2017-Dec-08 14:00N 11°03' W 074°50'2 3.6
2017-Dec-08 13:30N 11°04' W 074°51'2 3.3
2017-Dec-08 13:00N 11°06' W 074°51'1 2.9
2017-Dec-08 12:30N 11°07' W 074°52'1 1.6
2017-Dec-08 12:00N 11°07' W 074°51'4 7.6
2017-Dec-08 11:30N 11°03' W 074°50'0 0.0
2017-Dec-07 23:47N 11°03' W 074°50'0 0.0
2017-Dec-07 23:30N 11°03' W 074°50'0 0.0
2017-Dec-07 23:00N 11°03' W 074°50'1 2.8
2017-Dec-07 22:30N 11°02' W 074°49'0 0.3
2017-Dec-07 22:00N 11°02' W 074°49'1 2.5
2017-Dec-07 21:30N 11°03' W 074°50'0 0.0
2017-Dec-07 21:00N 11°03' W 074°50'0 0.0
2017-Dec-07 20:30N 11°03' W 074°50'0 0.0
2017-Dec-07 20:00N 11°03' W 074°50'0 0.0
2017-Dec-07 19:30N 11°03' W 074°50'0 0.0
2017-Dec-07 18:59N 11°03' W 074°50'0 0.0
2017-Dec-07 18:30N 11°03' W 074°50'0 0.0
2017-Dec-07 18:00N 11°03' W 074°50'0 0.0
2017-Dec-07 17:30N 11°03' W 074°50'0 0.0
2017-Dec-07 17:00N 11°03' W 074°50'0 0.0
2017-Dec-07 16:30N 11°03' W 074°50'0 0.0
2017-Dec-07 16:00N 11°03' W 074°50'0 0.0
2017-Dec-07 15:30N 11°03' W 074°50'0 0.6
2017-Dec-07 15:00N 11°04' W 074°50'2 4.0
2017-Dec-07 14:30N 11°05' W 074°51'1 2.6
2017-Dec-07 14:00N 11°07' W 074°51'2 3.1
2017-Dec-07 13:30N 11°06' W 074°53'2 3.2
2017-Dec-07 13:00N 11°06' W 074°51'3 6.0
2017-Dec-07 12:30N 11°03' W 074°50'1 2.1
2017-Dec-07 12:00N 11°03' W 074°49'1 1.3
2017-Dec-07 11:30N 11°02' W 074°49'0 0.0
2017-Dec-07 11:00N 11°02' W 074°49'1 2.5
2017-Dec-07 10:30N 11°03' W 074°50'1 0.0
2017-Dec-07 00:05N 11°03' W 074°50'0 0.1
2017-Dec-07 00:00N 11°03' W 074°50'0 0.0
2017-Dec-06 23:27N 11°03' W 074°50'0 0.1
2017-Dec-06 23:00N 11°03' W 074°50'2 3.3
2017-Dec-06 22:30N 11°02' W 074°49'0 0.0
2017-Dec-06 22:00N 11°02' W 074°49'0 0.0
2017-Dec-06 21:30N 11°02' W 074°49'0 0.0
2017-Dec-06 21:00N 11°02' W 074°49'  
2017-Dec-03 21:46N 11°03' W 074°50'0 0.0
2017-Dec-03 21:30N 11°03' W 074°50'0 0.0
2017-Dec-03 21:00N 11°03' W 074°50'0 0.0
2017-Dec-03 20:30N 11°03' W 074°50'0 0.0
2017-Dec-03 20:00N 11°03' W 074°50'1 2.8
2017-Dec-03 19:29N 11°02' W 074°49'0 0.0
2017-Dec-03 19:00N 11°02' W 074°49'0 0.0
2017-Dec-03 18:07N 11°02' W 074°49'0 0.0
2017-Dec-03 17:59N 11°02' W 074°49'0 0.0
2017-Dec-03 17:27N 11°02' W 074°49'0 0.0
2017-Dec-03 16:57N 11°02' W 074°49'0 0.0
2017-Dec-03 16:30N 11°02' W 074°49'0 0.0
2017-Dec-03 16:00N 11°02' W 074°49'0 0.0
2017-Dec-03 15:30N 11°02' W 074°49'0 0.0
2017-Dec-03 15:00N 11°02' W 074°49'0 0.0
2017-Dec-03 14:30N 11°02' W 074°49'0 1.0
2017-Dec-03 14:00N 11°03' W 074°49'2 3.0
2017-Dec-03 13:29N 11°04' W 074°50'2 3.9
2017-Dec-03 13:00N 11°06' W 074°51'1 2.7
2017-Dec-03 12:29N 11°07' W 074°52'0 1.0
2017-Dec-03 12:00N 11°07' W 074°52'4 0.3
2017-Dec-02 20:03N 11°03' W 074°50'0 0.0
2017-Dec-02 19:59N 11°03' W 074°50'0 0.0
2017-Dec-02 19:30N 11°03' W 074°50'0 0.0
2017-Dec-02 19:00N 11°03' W 074°50'0 0.0
2017-Dec-02 18:30N 11°03' W 074°50'0 0.0
2017-Dec-02 18:00N 11°03' W 074°50'0 0.0
2017-Dec-02 17:31N 11°03' W 074°50'0 0.0
2017-Dec-02 17:00N 11°03' W 074°50'0 0.0
2017-Dec-02 16:30N 11°03' W 074°50'0 0.0
2017-Dec-02 16:00N 11°03' W 074°50'0 0.0
2017-Dec-02 15:30N 11°03' W 074°50'0 0.0
2017-Dec-02 15:00N 11°03' W 074°50'0 0.0
2017-Dec-02 14:31N 11°03' W 074°50'0 0.0
2017-Dec-01 22:03N 11°03' W 074°50'0 0.0
2017-Dec-01 22:00N 11°03' W 074°50'1 2.9
2017-Dec-01 21:30N 11°02' W 074°49'0 0.0
2017-Dec-01 21:00N 11°02' W 074°49'0 0.0
2017-Dec-01 18:07N 11°02' W 074°49'0 0.0
2017-Dec-01 18:00N 11°02' W 074°49'0 0.0
2017-Dec-01 17:30N 11°02' W 074°49'1 1.7
2017-Dec-01 17:00N 11°03' W 074°50'  

Dump ship's entire track history